Latest Weather Observations for Maria Island

IDT60801

Issued at 11:02 pm EDT Sunday 19 November 2017 (issued every 30 minutes, with the page automatically refreshed every 10 minutes)

About weather observations | Map of weather stations | Latest weather observations for TAS | Other Formats
Station Details ID: 092124 Name: MARIA ISLAND (POINT LESUEUR) Lat: -42.66 Lon: 148.02 Height: 28.0 m
Data from the previous 72 hours. | See also: Recent months at Maria Island
Date/Time
EDT
Temp
°C
App
Temp
°C
Dew
Point
°C
Rel
Hum
%
Delta-T
°C
Wind Press
QNH
hPa
Press
MSL
hPa
Rain since
9am
mm
Dir  Spd
km/h
Gust
km/h
Spd
kts
Gust
kts
19/11:00pm 16.1 12.9 14.3 89 1.0 N 24 28 13 15 1024.1 1024.1 0.0
19/10:30pm 16.1 12.8 14.1 88 1.1 N 24 28 13 15 1024.1 1024.1 0.0
19/10:00pm 16.4 12.8 14.1 86 1.3 N 26 32 14 17 1024.0 1024.0 0.0
19/09:30pm 16.7 13.3 13.6 82 1.7 N 24 26 13 14 1024.0 1024.0 0.0
19/09:00pm 16.5 13.8 13.6 83 1.6 N 20 24 11 13 1023.6 1023.6 0.0
19/08:30pm 16.7 14.0 13.6 82 1.7 N 20 22 11 12 1023.4 1023.4 0.0
19/08:00pm 17.3 13.7 13.2 77 2.3 N 24 26 13 14 1023.0 1023.0 0.0
19/07:30pm 17.6 13.4 13.5 77 2.3 N 28 32 15 17 1022.8 1022.8 0.0
19/07:00pm 18.4 14.5 13.3 72 2.9 N 26 32 14 17 1022.7 1022.7 0.0
19/06:30pm 18.8 14.0 13.0 69 3.3 N 30 33 16 18 1022.4 1022.4 0.0
19/06:00pm 19.1 15.0 13.7 71 3.1 N 28 32 15 17 1022.3 1022.3 0.0
19/05:30pm 19.7 15.1 13.4 67 3.6 N 30 35 16 19 1022.2 1022.2 0.0
19/05:00pm 20.3 14.7 13.3 64 4.0 N 35 39 19 21 1022.0 1022.0 0.0
19/04:30pm 20.7 15.5 13.4 63 4.2 N 33 39 18 21 1021.9 1021.9 0.0
19/04:00pm 20.7 15.5 13.4 63 4.2 N 33 39 18 21 1022.0 1022.0 0.0
19/03:30pm 20.6 14.0 13.6 64 4.0 N 41 46 22 25 1022.2 1022.2 0.0
19/03:00pm 20.7 14.8 13.6 64 4.1 N 37 43 20 23 1022.4 1022.4 0.0
19/02:30pm 20.7 15.7 13.9 65 3.9 N 33 35 18 19 1022.8 1022.8 0.0
19/02:00pm 21.2 17.0 13.4 61 4.5 N 28 32 15 17 1023.0 1023.0 0.0
19/01:30pm 22.0 17.2 14.1 61 4.6 N 32 35 17 19 1023.1 1023.1 0.0
19/01:00pm 22.0 17.0 13.9 60 4.7 N 33 37 18 20 1023.2 1023.2 0.0
19/12:30pm 21.6 16.2 12.7 57 5.1 N 33 37 18 20 1023.3 1023.3 0.0
19/12:00pm 21.8 16.5 12.6 56 5.2 N 32 35 17 19 1023.3 1023.3 0.0
19/11:30am 21.2 16.9 12.1 56 5.1 N 26 32 14 17 1023.5 1023.5 0.0
19/11:00am 20.9 15.5 12.3 58 4.8 N 32 35 17 19 1023.6 1023.6 0.0
19/10:30am 20.7 16.2 12.7 60 4.5 N 28 32 15 17 1023.5 1023.5 0.0
19/10:00am 19.9 15.9 11.9 60 4.4 N 24 28 13 15 1023.7 1023.7 0.0
19/09:30am 20.8 16.7 12.8 60 4.5 N 26 32 14 17 1023.9 1023.9 0.0
19/09:00am 19.2 14.1 12.0 63 4.0 N 30 33 16 18 1024.0 1024.0 0.0
19/08:30am 18.2 13.6 12.2 68 3.3 N 28 32 15 17 1023.9 1023.9 0.0
19/08:00am 17.2 13.7 12.1 72 2.8 N 22 24 12 13 1024.1 1024.1 0.0
19/07:30am 16.6 13.9 12.8 78 2.1 N 19 22 10 12 1023.9 1023.9 0.0
19/07:00am 15.5 13.1 12.6 83 1.6 NNW 17 20 9 11 1023.8 1023.8 0.0
19/06:30am 16.0 12.4 12.0 77 2.2 N 22 26 12 14 1023.3 1023.3 0.0
19/06:00am 15.3 10.8 12.6 84 1.5 N 28 32 15 17 1022.8 1022.8 0.0
19/05:30am 15.1 11.0 12.6 85 1.4 NNE 26 30 14 16 1022.6 1022.6 0.0
19/05:00am 14.9 11.9 12.6 86 1.3 N 20 26 11 14 1022.6 1022.6 0.0
19/04:30am 15.1 11.2 12.2 83 1.6 N 24 28 13 15 1022.4 1022.4 0.0
19/04:00am 15.1 11.5 13.0 87 1.2 N 24 32 13 17 1022.2 1022.2 0.0
19/03:30am 15.2 11.2 13.1 87 1.2 N 26 30 14 16 1022.0 1022.0 0.0
19/03:00am 15.3 10.6 13.3 88 1.1 N 30 35 16 19 1022.0 1022.0 0.0
19/02:30am 15.4 10.3 13.6 89 1.0 N 33 39 18 21 1022.0 1022.0 0.0
19/02:00am 15.4 10.9 13.8 90 0.9 N 30 37 16 20 1022.3 1022.3 0.0
19/01:30am 15.5 10.6 13.7 89 1.0 N 32 41 17 22 1022.3 1022.3 0.0
19/01:00am 15.7 8.7 13.7 88 1.1 N 43 48 23 26 1022.0 1022.0 0.0
19/12:30am 15.9 8.7 13.7 87 1.2 N 44 52 24 28 1021.9 1021.9 0.0
19/12:00am 16.1 8.1 13.6 85 1.4 N 48 56 26 30 1021.8 1021.8 0.0
 
Date/Time
EDT
Temp
°C
App
Temp
°C
Dew
Point
°C
Rel
Hum
%
Delta-T
°C
Wind Press
QNH
hPa
Press
MSL
hPa
Rain since
9am
mm
Dir  Spd
km/h
Gust
km/h
Spd
kts
Gust
kts
18/11:30pm 16.1 7.7 13.6 85 1.4 N 50 59 27 32 1021.3 1021.3 0.0
18/11:00pm 16.3 8.0 13.8 85 1.4 N 50 57 27 31 1021.5 1021.5 0.0
18/10:30pm 16.4 7.7 13.7 84 1.5 N 52 57 28 31 1021.8 1021.8 0.0
18/10:00pm 16.8 8.0 13.3 80 2.0 N 52 59 28 32 1021.5 1021.5 0.0
18/09:30pm 17.1 8.2 13.2 78 2.2 N 52 61 28 33 1021.3 1021.3 0.0
18/09:00pm 17.0 9.3 13.3 79 2.1 N 46 54 25 29 1021.4 1021.4 0.0
18/08:30pm 17.1 9.7 13.2 78 2.2 N 44 52 24 28 1021.1 1021.1 0.0
18/08:00pm 17.1 10.4 13.4 79 2.1 N 41 46 22 25 1021.2 1021.2 0.0
18/07:30pm 17.2 11.2 13.3 78 2.2 N 37 43 20 23 1021.0 1021.0 0.0
18/07:00pm 17.6 11.6 13.3 76 2.4 N 37 44 20 24 1020.7 1020.7 0.0
18/06:30pm 18.4 12.4 13.3 72 2.9 N 37 44 20 24 1020.1 1020.1 0.0
18/06:00pm 19.1 12.7 13.1 68 3.4 N 39 46 21 25 1019.8 1019.8 0.0
18/05:30pm 19.5 13.5 13.2 67 3.6 N 37 44 20 24 1020.1 1020.1 0.0
18/05:00pm 20.3 15.3 13.5 65 3.9 N 32 41 17 22 1020.3 1020.3 0.0
18/04:30pm 20.5 15.1 13.9 66 3.8 NNE 35 43 19 23 1020.3 1020.3 0.0
18/04:00pm 20.4 14.1 13.6 65 3.9 NNE 39 48 21 26 1020.3 1020.3 0.0
18/03:30pm 20.6 14.0 13.8 65 3.9 NNE 41 52 22 28 1020.3 1020.3 0.0
18/03:00pm 21.1 15.3 13.8 63 4.2 NNE 37 50 20 27 1020.4 1020.4 0.0
18/02:30pm 21.6 16.2 13.8 61 4.5 NNE 35 46 19 25 1020.5 1020.5 0.0
18/02:00pm 22.1 16.6 13.5 58 5.0 NNE 35 46 19 25 1020.6 1020.6 0.0
18/01:30pm 22.0 17.0 14.1 61 4.6 NNE 33 43 18 23 1020.9 1020.9 0.0
18/01:00pm 22.0 17.0 14.1 61 4.6 NNE 33 41 18 22 1021.3 1021.3 0.0
18/12:30pm 21.6 16.6 14.0 62 4.4 NNE 33 48 18 26 1021.6 1021.6 0.0
18/12:00pm 21.2 15.0 13.9 63 4.2 NNE 39 48 21 26 1021.3 1021.3 0.0
18/11:30am 20.5 13.3 13.7 65 3.9 NNE 44 57 24 31 1021.5 1021.5 0.0
18/11:00am 20.2 13.7 13.9 67 3.6 NNE 41 52 22 28 1021.6 1021.6 0.0
18/10:45am 20.1 13.6 14.0 68 3.5 NNE 41 59 22 32 1022.1 1022.1 0.0
18/10:30am 19.8 12.8 14.2 70 3.2 NNE 44 61 24 33 1021.9 1021.9 0.0
18/10:00am 19.7 14.7 14.1 70 3.2 NNE 33 43 18 23 1022.1 1022.1 0.0
18/09:45am 19.3 13.2 14.1 72 3.0 NNE 39 57 21 31 1021.9 1021.9 0.0
18/09:30am 19.2 13.2 14.5 74 2.7 NNE 39 56 21 30 1022.0 1022.0 0.0
18/09:00am 18.7 12.3 14.4 76 2.5 NNE 41 59 22 32 1022.4 1022.4 0.0
18/08:50am 18.5 12.7 14.0 75 2.6 NNE 37 57 20 31 1022.2 1022.2 0.0
18/08:30am 18.4 12.4 14.5 78 2.3 NNE 39 48 21 26 1022.3 1022.3 0.0
18/08:00am 17.8 12.1 14.3 80 2.0 N 37 46 20 25 1022.4 1022.4 0.0
18/07:30am 17.3 12.6 14.4 83 1.7 NNE 32 41 17 22 1022.4 1022.4 0.0
18/07:00am 16.7 12.7 14.2 85 1.4 N 28 33 15 18 1022.3 1022.3 0.0
18/06:30am 16.4 12.0 14.2 87 1.3 NNE 30 35 16 19 1022.1 1022.1 0.0
18/06:00am 16.5 11.8 14.2 86 1.3 NNE 32 41 17 22 1021.9 1021.9 0.0
18/05:30am 16.6 11.7 14.2 86 1.4 NNE 33 43 18 23 1021.5 1021.5 0.0
18/05:00am 16.5 10.5 14.3 87 1.3 NNE 39 48 21 26 1020.9 1020.9 0.0
18/04:30am 16.5 11.6 14.3 87 1.3 NNE 33 41 18 22 1021.0 1021.0 0.0
18/04:00am 16.6 11.3 14.1 85 1.4 NNE 35 44 19 24 1021.2 1021.2 0.0
18/03:30am 16.6 10.9 14.2 86 1.4 NNE 37 46 20 25 1021.3 1021.3 0.0
18/03:00am 16.6 11.7 14.4 87 1.3 NNE 33 43 18 23 1021.8 1021.8 0.0
18/02:30am 16.5 11.7 14.5 88 1.1 NNE 33 39 18 21 1021.7 1021.7 0.0
18/02:00am 16.6 12.0 14.6 88 1.1 N 32 37 17 20 1021.7 1021.7 0.0
18/01:30am 16.6 12.0 14.6 88 1.1 NNE 32 37 17 20 1021.5 1021.5 0.0
18/01:00am 16.8 12.0 14.6 87 1.3 NNE 33 39 18 21 1021.4 1021.4 0.0
18/12:30am 16.9 12.1 14.5 86 1.4 NNE 33 43 18 23 1021.7 1021.7 0.0
18/12:00am 16.8 12.1 14.4 86 1.4 NNE 32 41 17 22 1021.7 1021.7 0.0
 
Date/Time
EDT
Temp
°C
App
Temp
°C
Dew
Point
°C
Rel
Hum
%
Delta-T
°C
Wind Press
QNH
hPa
Press
MSL
hPa
Rain since
9am
mm
Dir  Spd
km/h
Gust
km/h
Spd
kts
Gust
kts
17/11:30pm 16.8 12.9 14.4 86 1.4 NNE 28 33 15 18 1021.8 1021.8 0.0
17/11:00pm 16.7 11.4 14.2 85 1.4 NNE 35 44 19 24 1021.6 1021.6 0.0
17/10:30pm 16.9 11.2 14.2 84 1.5 NNE 37 48 20 26 1021.6 1021.6 0.0
17/10:00pm 17.1 12.2 14.4 84 1.5 NNE 33 39 18 21 1021.5 1021.5 0.0
17/09:30pm 17.2 11.7 14.7 85 1.4 NNE 37 44 20 24 1021.2 1021.2 0.0
17/09:00pm 17.2 11.3 14.7 85 1.4 NNE 39 48 21 26 1020.7 1020.7 0.0
17/08:30pm 17.1 11.9 14.6 85 1.4 NNE 35 43 19 23 1020.7 1020.7 0.0
17/08:00pm 17.3 12.8 14.8 85 1.4 NNE 32 39 17 21 1020.8 1020.8 0.0
17/07:30pm 17.5 13.0 14.8 84 1.6 NNE 32 41 17 22 1020.9 1020.9 0.0
17/07:00pm 18.2 13.7 14.9 81 1.9 NNE 32 39 17 21 1020.7 1020.7 0.0
17/06:30pm 18.2 13.1 14.9 81 1.9 NNE 35 43 19 23 1020.2 1020.2 0.0
17/06:00pm 19.0 14.3 14.9 77 2.4 NNE 33 37 18 20 1019.6 1019.6 0.0
17/05:30pm 19.6 14.7 14.4 72 3.0 NNE 33 41 18 22 1019.6 1019.6 0.0
17/05:00pm 19.6 14.4 14.6 73 2.9 NNE 35 43 19 23 1019.8 1019.8 0.0
17/04:30pm 20.8 15.9 13.7 64 4.1 NNE 32 41 17 22 1020.0 1020.0 0.0
17/04:00pm 20.5 15.5 13.9 66 3.8 NNE 33 43 18 23 1020.0 1020.0 0.0
17/03:30pm 20.7 15.5 14.4 67 3.7 NNE 35 43 19 23 1020.1 1020.1 0.0
17/03:00pm 21.3 16.0 14.2 64 4.1 NNE 35 43 19 23 1020.3 1020.3 0.0
17/02:30pm 21.3 15.5 14.0 63 4.2 NNE 37 43 20 23 1020.5 1020.5 0.0
17/02:00pm 20.5 15.6 14.4 68 3.5 NNE 33 43 18 23 1020.7 1020.7 0.0
17/01:30pm 20.2 16.6 15.2 73 3.0 NNE 28 33 15 18 1021.1 1021.1 0.0
17/01:00pm 20.3 16.0 15.3 73 2.9 NNE 32 43 17 23 1021.1 1021.1 0.0
17/12:30pm 19.2 15.4 14.7 75 2.6 NNE 28 35 15 19 1021.5 1021.5 0.0
17/12:00pm 19.7 15.8 15.6 77 2.4 N 30 37 16 20 1021.6 1021.6 0.0
17/11:30am 18.4 16.8 16.0 86 1.4 N 19 24 10 13 1021.9 1021.9 0.0
17/11:00am 18.0 18.0 16.2 89 1.1 N 11 17 6 9 1022.2 1022.2 0.0
17/10:30am 17.6 18.4 16.3 92 0.8 NE 7 11 4 6 1022.4 1022.4 0.0
17/10:00am 16.0 16.6 15.2 95 0.5 W 6 7 3 4 1022.3 1022.3 0.0
17/09:30am 15.8 15.8 15.2 96 0.3 E 9 13 5 7 1022.3 1022.3 0.0
17/09:00am 16.0 15.7 15.5 97 0.3 ESE 11 15 6 8 1022.2 1022.2 1.4
17/08:30am 15.7 16.3 15.2 97 0.3 NE 6 7 3 4 1022.2 1022.2 1.4
17/08:00am 15.1 15.8 14.6 97 0.3 NW 4 6 2 3 1022.1 1022.1 1.4
17/07:30am 15.0 15.3 14.5 97 0.3 NE 6 9 3 5 1021.8 1021.8 1.4
17/07:00am 14.6 15.1 14.1 97 0.3 ESE 4 9 2 5 1021.7 1021.7 1.2
17/06:30am 14.4 14.3 13.9 97 0.3 SE 7 9 4 5 1021.7 1021.7 1.0
17/06:00am 14.2 13.3 13.7 97 0.3 ESE 11 15 6 8 1021.5 1021.5 1.0
17/05:30am 13.8 12.4 13.3 97 0.3 SE 13 17 7 9 1021.2 1021.2 1.0
17/05:00am 13.5 12.0 13.0 97 0.3 SE 13 19 7 10 1021.3 1021.3 0.8
17/04:30am 13.4 10.7 12.9 97 0.3 ESE 19 24 10 13 1021.4 1021.4 0.8
17/04:00am 13.3 10.4 12.8 97 0.3 ESE 20 26 11 14 1021.5 1021.5 0.6
17/03:30am 13.2 11.2 12.6 96 0.3 SE 15 24 8 13 1021.9 1021.9 0.6
17/03:00am 13.1 11.8 12.5 96 0.3 SSE 11 17 6 9 1022.1 1022.1 0.6
17/02:30am 13.1 11.4 12.5 96 0.3 SE 13 20 7 11 1022.2 1022.2 0.4
17/02:00am 13.0 12.0 12.4 96 0.3 SSE 9 15 5 8 1022.3 1022.3 0.2
17/01:30am 12.8 11.0 12.0 95 0.4 SE 13 20 7 11 1022.4 1022.4 0.2
17/01:00am 12.8 9.8 12.0 95 0.4 ESE 19 24 10 13 1022.4 1022.4 0.0
17/12:30am 12.8 10.2 11.9 94 0.5 ESE 17 24 9 13 1022.7 1022.7 0.0
17/12:00am 12.8 10.2 11.9 94 0.5 SE 17 22 9 12 1022.7 1022.7 0.0
 
Date/Time
EDT
Temp
°C
App
Temp
°C
Dew
Point
°C
Rel
Hum
%
Delta-T
°C
Wind Press
QNH
hPa
Press
MSL
hPa
Rain since
9am
mm
Dir  Spd
km/h
Gust
km/h
Spd
kts
Gust
kts
16/11:30pm 12.7 10.0 11.8 94 0.5 SE 17 22 9 12 1022.8 1022.8 0.0

Other Formats:

Comma delimited format used in spreadsheet applications
http://www.bom.gov.au/fwo/IDT60801/IDT60801.95988.axf

JavaScript Object Notation format (JSON) in row-major order
http://www.bom.gov.au/fwo/IDT60801/IDT60801.95988.json